CheckWX is a tool to help pilots better visualize weather data.  It is not intended as a substitute for an official pre-flight weather briefing.

19:18:53 UTC

FMCZ METAR
Dzaoudzi Pamandzi International Airport
Dzaoudzi, Mayotte
Current

19 mins ago

FMCZ 221900Z AUTO 23007KT CAVOK 29/25 Q1010 NOSIG
Observed
Feb-22 @ 19:00 UTC
Wind
  • 230° at 7 KTS
Visibility
10,000+ meters
Flight Rules
VFR
Cloud Levels
  • Clear skies
Temperature
29°C / 84°F
Dewpoint
25°C / 77°F
Humidity
79%
Altimeter
29.82" Hg
Pressure
1009.92 hPa
Previous

49 mins ago

FMCZ 221830Z AUTO 21007KT 9999 FEW024 29/25 Q1011 NOSIG
Observed
Feb-22 @ 18:30 UTC
Wind
  • 210° at 7 KTS
Visibility
10,000+ meters
Flight Rules
VFR
Cloud Levels
  • Few at 2,400' AGL
Temperature
29°C / 84°F
Dewpoint
25°C / 77°F
Humidity
79%
Altimeter
29.85" Hg
Pressure
1010.92 hPa
Previous

1 hour ago

FMCZ 221800Z AUTO 23007KT 9999 ///TCU 29/25 Q1010 BECMG SCT025
Observed
Feb-22 @ 18:00 UTC
Wind
  • 230° at 7 KTS
Visibility
10,000+ meters
Temperature
29°C / 84°F
Dewpoint
25°C / 77°F
Humidity
79%
Altimeter
29.82" Hg
Pressure
1009.92 hPa